Ilyas Efendiyev — 9HES8 — position and weather

sailwx.info

Track history (hours):
 
Tides and Currents Weather Stations Pressure Air Temp Water Temp Dewpoint Dewpoint Depression Visibility Wind Speed Wind Dir Waves Ship Positions

Ilyas Efendiyev

Last reported at 2014-Aug-27 17:24 UTC. Time now 2014-Aug-30 00:31 UTC.
Position N 33°22' E 033°20'.

Length 140 m; draft 4.4 m.

Type: Cargo ship. MMSI: 215901000.

Date/timePositionNaut miles runAvg speedWind from/ knotsBaromVisibWave heightAir tempDewpointWater temp
2014-Aug-27 17:24N 33°22' E 033°20'32 8.4
2014-Aug-27 13:33N 33°37' E 032°45'9 8.6
2014-Aug-27 12:29N 33°42' E 032°35'10 8.8
2014-Aug-27 11:20N 33°47' E 032°25'7 8.7
2014-Aug-27 10:33N 33°50' E 032°18'8 8.4
2014-Aug-27 09:33N 33°54' E 032°09'10 8.3
2014-Aug-27 08:21N 33°59' E 031°59'18 8.3
2014-Aug-27 06:09N 34°08' E 031°39'  
2014-Aug-23 00:30N 35°26' E 015°14'8 9.0
2014-Aug-22 23:33N 35°27' E 015°03'9 9.0
2014-Aug-22 22:33N 35°28' E 014°52'9 8.9
2014-Aug-22 21:33N 35°30' E 014°42'9 8.9
2014-Aug-22 20:34N 35°31' E 014°31'8 8.5
2014-Aug-22 19:34N 35°36' E 014°23'93 8.4
2014-Aug-22 08:33N 36°31' E 012°50'9 8.7
2014-Aug-22 07:33N 36°36' E 012°41'8 8.4
2014-Aug-22 06:33N 36°40' E 012°32'8 8.2
2014-Aug-22 05:33N 36°45' E 012°24'94 8.3
2014-Aug-21 18:12N 37°32' E 010°42'6 8.6
2014-Aug-21 17:34N 37°33' E 010°35'18 8.8
2014-Aug-21 15:33N 37°33' E 010°13'9 8.9
2014-Aug-21 14:34N 37°33' E 010°01'16 8.0
2014-Aug-21 12:33N 37°29' E 009°42'  
2014-Aug-17 18:27N 35°56' W 005°19'0 0.2
2014-Aug-17 17:33N 35°56' W 005°19'  
Track history (hours):
 
Tides and Currents Weather Stations Pressure Air Temp Water Temp Dewpoint Dewpoint Depression Visibility Wind Speed Wind Dir Waves Ship Positions

Ilyas Efendiyev

Last reported at 2014-Aug-27 17:24 UTC. Time now 2014-Aug-30 00:31 UTC.
Position N 33°22' E 033°20'.

Length 140 m; draft 4.4 m.

Type: Cargo ship. MMSI: 215901000.

Date/timePositionNaut miles runAvg speedWind from/ knotsBaromVisibWave heightAir tempDewpointWater temp
2014-Aug-27 17:24N 33°22' E 033°20'32 8.4
2014-Aug-27 13:33N 33°37' E 032°45'9 8.6
2014-Aug-27 12:29N 33°42' E 032°35'10 8.8
2014-Aug-27 11:20N 33°47' E 032°25'7 8.7
2014-Aug-27 10:33N 33°50' E 032°18'8 8.4
2014-Aug-27 09:33N 33°54' E 032°09'10 8.3
2014-Aug-27 08:21N 33°59' E 031°59'18 8.3
2014-Aug-27 06:09N 34°08' E 031°39'  
2014-Aug-23 00:30N 35°26' E 015°14'8 9.0
2014-Aug-22 23:33N 35°27' E 015°03'9 9.0
2014-Aug-22 22:33N 35°28' E 014°52'9 8.9
2014-Aug-22 21:33N 35°30' E 014°42'9 8.9
2014-Aug-22 20:34N 35°31' E 014°31'8 8.5
2014-Aug-22 19:34N 35°36' E 014°23'93 8.4
2014-Aug-22 08:33N 36°31' E 012°50'9 8.7
2014-Aug-22 07:33N 36°36' E 012°41'8 8.4
2014-Aug-22 06:33N 36°40' E 012°32'8 8.2
2014-Aug-22 05:33N 36°45' E 012°24'94 8.3
2014-Aug-21 18:12N 37°32' E 010°42'6 8.6
2014-Aug-21 17:34N 37°33' E 010°35'18 8.8
2014-Aug-21 15:33N 37°33' E 010°13'9 8.9
2014-Aug-21 14:34N 37°33' E 010°01'16 8.0
2014-Aug-21 12:33N 37°29' E 009°42'  
2014-Aug-17 18:27N 35°56' W 005°19'0 0.2
2014-Aug-17 17:33N 35°56' W 005°19'  

Dump ship's entire track history